Time;durP1;ratioP1;P1;durP2;ratioP2;P2;SDS_P1;SDS_P2;PMS_P1;PMS_P2;Temp;Humidity;BMP_temperature;BMP_pressure;BME280_temperature;BME280_humidity;BME280_pressure;Samples;Min_cycle;Max_cycle;Signal;HPM_P1;HPM_P2
2023/01/04 00:01:05;;;;;;;6.53;1.70;;;27.90;90.70;;;;;;5030525;28;20029;-63
2023/01/04 00:03:33;;;;;;;10.00;1.95;;;28.60;90.30;;;;;;5031608;28;20021;-63
2023/01/04 00:06:03;;;;;;;10.35;2.20;;;29.10;89.10;;;;;;5030611;28;20025;-63
2023/01/04 00:08:30;;;;;;;7.82;1.73;;;29.10;88.00;;;;;;5046585;28;20037;-63
2023/01/04 00:11:06;;;;;;;5.93;2.60;;;28.50;89.20;;;;;;5044256;28;20035;-63
2023/01/04 00:13:33;;;;;;;7.72;1.83;;;28.20;89.60;;;;;;5030856;28;20113;-63
2023/01/04 00:16:06;;;;;;;9.20;1.70;;;27.90;90.70;;;;;;5033791;28;20124;-63
2023/01/04 00:18:34;;;;;;;6.32;1.77;;;27.70;90.90;;;;;;5050515;28;20083;-63
2023/01/04 00:21:19;;;;;;;11.23;1.80;;;27.90;90.80;;;;;;5044741;28;20029;-63
2023/01/04 00:23:49;;;;;;;7.85;2.00;;;28.10;89.60;;;;;;5029919;28;20029;-63
2023/01/04 00:26:21;;;;;;;8.73;2.50;;;27.90;90.30;;;;;;5030014;28;20053;-63
2023/01/04 00:28:52;;;;;;;11.80;2.10;;;28.00;91.00;;;;;;5030131;28;20033;-63
2023/01/04 00:31:19;;;;;;;11.50;2.78;;;28.00;91.80;;;;;;5029925;28;20386;-63
2023/01/04 00:33:47;;;;;;;15.65;2.45;;;28.20;91.30;;;;;;5044768;28;20025;-63
2023/01/04 00:36:15;;;;;;;9.13;2.95;;;28.50;91.10;;;;;;5049869;28;20024;-63
2023/01/04 00:38:42;;;;;;;8.20;1.98;;;29.10;89.90;;;;;;5043786;28;20131;-62
2023/01/04 00:41:11;;;;;;;11.45;2.55;;;29.40;85.50;;;;;;5049802;28;20029;-63
2023/01/04 00:43:39;;;;;;;12.02;2.00;;;29.00;85.70;;;;;;5049619;28;20112;-62
2023/01/04 00:46:10;;;;;;;7.07;1.55;;;29.00;86.10;;;;;;5050082;28;20033;-61
2023/01/04 00:48:37;;;;;;;12.35;2.28;;;28.60;86.20;;;;;;5034205;28;20037;-63
2023/01/04 00:51:05;;;;;;;9.57;1.67;;;28.20;87.60;;;;;;5030119;28;20014;-63
2023/01/04 00:53:32;;;;;;;8.05;1.55;;;28.00;89.80;;;;;;5029087;28;20425;-62
2023/01/04 00:56:00;;;;;;;11.75;2.08;;;27.50;90.60;;;;;;5042909;28;20099;-61
2023/01/04 00:58:27;;;;;;;9.30;2.00;;;27.30;92.30;;;;;;5039285;28;20718;-61
2023/01/04 01:00:54;;;;;;;6.15;1.67;;;27.10;92.50;;;;;;5034699;28;20033;-62
2023/01/04 01:03:22;;;;;;;5.85;1.50;;;27.10;92.50;;;;;;5038817;28;20025;-62
2023/01/04 01:05:49;;;;;;;12.00;1.92;;;26.80;92.80;;;;;;5036053;28;20100;-61
2023/01/04 01:08:25;;;;;;;11.13;2.53;;;26.60;93.70;;;;;;5038834;28;20488;-61
2023/01/04 01:10:54;;;;;;;11.77;2.00;;;26.50;93.90;;;;;;5037322;28;20064;-63
2023/01/04 01:13:22;;;;;;;9.45;1.90;;;26.50;93.60;;;;;;5040181;28;20504;-62
2023/01/04 01:15:50;;;;;;;8.40;1.85;;;26.30;94.20;;;;;;5037020;28;20479;-62
2023/01/04 01:18:17;;;;;;;9.63;2.10;;;26.30;94.60;;;;;;5035908;28;20033;-61
2023/01/04 01:20:45;;;;;;;13.95;2.22;;;26.40;96.00;;;;;;5038849;28;20474;-62
2023/01/04 01:23:14;;;;;;;8.48;1.90;;;26.60;97.20;;;;;;5037038;28;20410;-63
2023/01/04 01:25:42;;;;;;;9.98;1.73;;;26.70;96.80;;;;;;5041737;28;20103;-62
2023/01/04 01:28:09;;;;;;;5.90;1.70;;;26.80;96.80;;;;;;5033555;28;20044;-64
2023/01/04 01:30:42;;;;;;;9.50;1.80;;;26.90;96.70;;;;;;5048264;28;20048;-64
2023/01/04 01:33:10;;;;;;;9.07;1.77;;;27.00;96.40;;;;;;5035798;28;20037;-64
2023/01/04 01:35:37;;;;;;;7.47;2.13;;;27.70;96.10;;;;;;5029358;28;20041;-64
2023/01/04 01:38:05;;;;;;;8.20;2.00;;;27.40;95.20;;;;;;5028219;28;20021;-64
2023/01/04 01:40:32;;;;;;;7.60;1.88;;;27.70;95.30;;;;;;5029706;28;20036;-64
2023/01/04 01:42:59;;;;;;;10.43;2.00;;;27.80;94.00;;;;;;5044215;28;20017;-64
2023/01/04 01:45:34;;;;;;;8.40;2.30;;;27.90;93.90;;;;;;5047676;28;20105;-64
2023/01/04 01:48:11;;;;;;;14.60;2.83;;;27.90;94.40;;;;;;5042359;28;20036;-65
2023/01/04 01:50:48;;;;;;;9.38;2.30;;;28.30;93.30;;;;;;5048810;28;20132;-65
2023/01/04 01:53:16;;;;;;;7.35;1.83;;;28.70;92.80;;;;;;5036710;28;20036;-64
2023/01/04 01:55:45;;;;;;;9.98;2.28;;;28.90;92.00;;;;;;5028838;28;20485;-64
2023/01/04 01:58:21;;;;;;;7.68;1.85;;;28.70;91.80;;;;;;5029178;28;20474;-64
2023/01/04 02:00:48;;;;;;;10.68;2.67;;;28.20;92.50;;;;;;5046694;28;20025;-62
2023/01/04 02:03:24;;;;;;;7.72;2.45;;;27.80;93.10;;;;;;5035105;28;20053;-63
2023/01/04 02:05:53;;;;;;;8.05;1.67;;;27.30;94.60;;;;;;5040145;28;20033;-62
2023/01/04 02:08:23;;;;;;;25.27;5.25;;;27.10;95.20;;;;;;5039773;28;20048;-63
2023/01/04 02:10:51;;;;;;;6.05;1.73;;;27.20;95.50;;;;;;5048318;28;20021;-63
2023/01/04 02:13:23;;;;;;;13.02;3.05;;;26.90;95.50;;;;;;5049158;28;20029;-63
2023/01/04 02:15:58;;;;;;;9.88;1.80;;;26.90;96.20;;;;;;5049664;28;20021;-64
2023/01/04 02:18:40;;;;;;;8.63;2.15;;;27.30;95.60;;;;;;5047070;28;20490;-65
2023/01/04 02:21:29;;;;;;;10.27;2.03;;;27.80;94.80;;;;;;5048233;28;20538;-64
2023/01/04 02:24:19;;;;;;;9.52;1.85;;;27.70;94.50;;;;;;5034680;28;20036;-63
2023/01/04 02:27:19;;;;;;;9.07;2.00;;;27.80;94.00;;;;;;5041885;28;20033;-63
2023/01/04 02:30:21;;;;;;;11.77;1.83;;;27.30;94.60;;;;;;5037795;28;20050;-62
2023/01/04 02:33:01;;;;;;;10.95;2.35;;;26.80;96.40;;;;;;5040649;28;20116;-63
2023/01/04 02:35:39;;;;;;;11.75;2.33;;;27.00;96.30;;;;;;5047978;28;20704;-63
2023/01/04 02:38:18;;;;;;;9.40;1.80;;;26.70;97.20;;;;;;5047554;28;20120;-63
2023/01/04 02:41:04;;;;;;;8.43;2.40;;;26.50;97.20;;;;;;5050254;28;20029;-62
2023/01/04 02:46:41;;;;;;;13.30;2.60;;;26.10;99.00;;;;;;5048159;28;20035;-63
2023/01/04 02:51:56;;;;;;;10.57;2.30;;;25.80;99.20;;;;;;5041045;28;20037;-62
2023/01/04 02:54:28;;;;;;;13.00;1.88;;;25.50;99.90;;;;;;5031879;28;20465;-62
2023/01/04 02:57:03;;;;;;;7.93;1.70;;;25.30;99.90;;;;;;5041272;28;20033;-62
2023/01/04 02:59:46;;;;;;;10.05;2.28;;;25.10;99.90;;;;;;5031670;28;20041;-62
2023/01/04 03:06:28;;;;;;;11.77;1.92;;;24.70;99.90;;;;;;5038052;28;20078;-62
2023/01/04 03:08:35;;;;;;;12.15;2.67;;;24.70;99.90;;;;;;5054803;28;20117;-64
2023/01/04 03:14:15;;;;;;;7.13;2.28;;;24.30;99.90;;;;;;5031833;28;20029;-63
2023/01/04 03:16:45;;;;;;;29.30;5.03;;;23.90;99.90;;;;;;5030843;28;20026;-63
2023/01/04 03:19:50;;;;;;;21.08;3.83;;;23.50;99.90;;;;;;5031432;28;20064;-64
2023/01/04 03:22:03;;;;;;;15.50;4.57;;;22.80;99.90;;;;;;5031178;28;20523;-63
2023/01/04 03:36:46;;;;;;;19.70;4.60;;;21.30;99.90;;;;;;5038860;28;20035;-59
2023/01/04 03:48:57;;;;;;;21.15;6.13;;;21.10;99.90;;;;;;5026425;28;20131;-62
2023/01/04 03:51:32;;;;;;;16.30;4.75;;;21.10;99.90;;;;;;5030318;28;20064;-61
2023/01/04 03:54:16;;;;;;;16.15;4.95;;;21.20;99.90;;;;;;5039058;28;20028;-61
2023/01/04 03:56:45;;;;;;;16.63;4.68;;;21.20;99.90;;;;;;5047136;28;20029;-61
2023/01/04 03:59:13;;;;;;;17.90;4.38;;;21.40;99.90;;;;;;5030611;28;20029;-62
2023/01/04 04:01:42;;;;;;;13.57;4.00;;;21.50;99.90;;;;;;5029609;28;20529;-63
2023/01/04 04:09:41;;;;;;;16.58;3.70;;;21.80;99.90;;;;;;5030304;28;20112;-64
2023/01/04 04:12:08;;;;;;;9.27;4.22;;;21.80;99.90;;;;;;5030808;28;20505;-61
2023/01/04 04:14:35;;;;;;;8.38;3.08;;;21.90;99.90;;;;;;5030606;28;20101;-61
2023/01/04 04:17:03;;;;;;;11.82;3.55;;;21.90;99.90;;;;;;5030218;28;20482;-60
2023/01/04 04:19:30;;;;;;;12.13;3.28;;;22.00;99.90;;;;;;5031595;28;20108;-61
2023/01/04 04:21:57;;;;;;;10.15;3.08;;;22.00;99.90;;;;;;5051377;28;20021;-61
2023/01/04 04:24:26;;;;;;;13.32;3.38;;;22.00;99.90;;;;;;5039215;28;21753;-61
2023/01/04 04:26:55;;;;;;;9.25;2.63;;;21.90;99.90;;;;;;5032236;28;20087;-60
2023/01/04 04:29:23;;;;;;;7.53;2.95;;;21.90;99.90;;;;;;5037497;28;20399;-61
2023/01/04 04:31:51;;;;;;;10.98;2.83;;;22.00;99.90;;;;;;5041256;28;20063;-61
2023/01/04 04:34:18;;;;;;;11.00;4.00;;;22.00;99.90;;;;;;5037431;28;20435;-61
2023/01/04 04:36:46;;;;;;;11.40;3.15;;;21.90;99.90;;;;;;5042216;28;20096;-61
2023/01/04 04:39:13;;;;;;;8.13;2.58;;;21.90;99.90;;;;;;5032101;28;20021;-61
2023/01/04 04:41:41;;;;;;;10.80;3.25;;;21.80;99.90;;;;;;5032020;28;20024;-61
2023/01/04 04:44:14;;;;;;;10.82;2.92;;;21.80;99.90;;;;;;5031994;28;20082;-63
2023/01/04 04:46:42;;;;;;;6.65;3.08;;;21.70;99.90;;;;;;5031426;28;20031;-61
2023/01/04 04:49:10;;;;;;;10.07;3.45;;;21.70;99.90;;;;;;5031705;28;20513;-62
2023/01/04 04:51:38;;;;;;;10.23;3.00;;;21.70;99.90;;;;;;5029219;28;20022;-61
2023/01/04 04:54:06;;;;;;;9.70;2.95;;;21.70;99.90;;;;;;5030472;28;20072;-61
2023/01/04 04:56:35;;;;;;;11.13;2.83;;;21.80;99.90;;;;;;5037316;28;20563;-62
2023/01/04 04:59:03;;;;;;;9.00;2.95;;;21.80;99.90;;;;;;5043869;28;20081;-61
2023/01/04 05:01:31;;;;;;;8.43;2.55;;;21.80;99.90;;;;;;5059492;28;20482;-61
2023/01/04 05:03:58;;;;;;;8.35;3.03;;;21.80;99.90;;;;;;5062632;28;20059;-61
2023/01/04 05:06:25;;;;;;;13.75;2.97;;;21.80;99.90;;;;;;5049630;28;20536;-61
2023/01/04 05:08:52;;;;;;;10.23;3.75;;;21.90;99.90;;;;;;5040329;28;20044;-61
2023/01/04 05:12:58;;;;;;;8.30;2.67;;;22.00;99.90;;;;;;5033567;28;20033;-63
2023/01/04 05:14:07;;;;;;;7.63;2.30;;;22.10;99.90;;;;;;5035529;28;20041;-62
2023/01/04 05:16:34;;;;;;;7.00;2.05;;;22.20;99.90;;;;;;5036138;28;20021;-62
2023/01/04 05:19:02;;;;;;;8.00;2.70;;;22.20;99.90;;;;;;5033605;28;20060;-62
2023/01/04 05:21:29;;;;;;;10.73;2.75;;;22.20;99.90;;;;;;5032990;28;20033;-63
2023/01/04 05:23:56;;;;;;;5.53;2.42;;;22.30;99.90;;;;;;5035854;28;20029;-62
2023/01/04 05:26:23;;;;;;;6.88;1.65;;;22.40;99.90;;;;;;5035746;28;20048;-62
2023/01/04 05:28:51;;;;;;;6.05;2.00;;;22.50;99.90;;;;;;5037786;28;20486;-62
2023/01/04 05:31:18;;;;;;;6.38;1.92;;;22.70;99.90;;;;;;5033587;28;20017;-61
2023/01/04 05:33:45;;;;;;;8.68;2.08;;;22.90;99.90;;;;;;5038126;28;20074;-61
2023/01/04 05:36:12;;;;;;;4.72;1.30;;;22.80;99.90;;;;;;5036956;28;20033;-61
2023/01/04 05:38:39;;;;;;;5.43;1.58;;;22.90;99.90;;;;;;5034456;28;20386;-62
2023/01/04 05:42:24;;;;;;;7.53;2.03;;;23.00;99.90;;;;;;5039532;28;20508;-61
2023/01/04 05:43:54;;;;;;;9.73;2.03;;;22.70;99.90;;;;;;5042555;28;20437;-61
2023/01/04 05:46:22;;;;;;;4.20;1.45;;;22.70;99.90;;;;;;5040531;28;20500;-62
2023/01/04 05:48:50;;;;;;;4.78;2.35;;;22.60;99.90;;;;;;5040184;28;20029;-62
2023/01/04 05:51:17;;;;;;;8.88;1.75;;;22.50;99.90;;;;;;5037925;28;20470;-61
2023/01/04 05:53:44;;;;;;;6.05;1.95;;;22.40;99.90;;;;;;5040577;28;20025;-62
2023/01/04 05:56:11;;;;;;;8.40;1.70;;;22.40;99.90;;;;;;5041567;28;20024;-62
2023/01/04 05:58:39;;;;;;;8.00;1.83;;;22.40;99.90;;;;;;5039077;28;20021;-62
2023/01/04 06:01:06;;;;;;;5.85;1.50;;;22.30;99.90;;;;;;5042382;28;20099;-61
2023/01/04 06:03:33;;;;;;;5.75;1.60;;;22.20;99.90;;;;;;5043142;28;20585;-62
2023/01/04 06:06:01;;;;;;;5.53;1.33;;;22.00;99.90;;;;;;5040439;28;20029;-62
2023/01/04 06:08:28;;;;;;;8.85;1.40;;;22.00;99.90;;;;;;5038814;28;20068;-62
2023/01/04 06:10:55;;;;;;;7.63;2.60;;;21.90;99.90;;;;;;5040600;28;20367;-61
2023/01/04 06:13:23;;;;;;;10.30;1.67;;;21.90;99.90;;;;;;5041086;28;20446;-62
2023/01/04 06:15:50;;;;;;;11.85;1.60;;;21.80;99.90;;;;;;5040186;28;20033;-61
2023/01/04 06:18:17;;;;;;;8.80;1.55;;;21.80;99.90;;;;;;5034618;28;20035;-62
2023/01/04 06:20:44;;;;;;;6.10;1.40;;;21.80;99.90;;;;;;5039706;28;20036;-61
2023/01/04 06:23:12;;;;;;;6.03;1.42;;;21.80;99.90;;;;;;5041363;28;20482;-61
2023/01/04 06:25:39;;;;;;;2.72;1.25;;;21.70;99.90;;;;;;5042204;28;20025;-67
2023/01/04 06:28:06;;;;;;;2.92;1.30;;;21.70;99.90;;;;;;5039925;28;20517;-62
2023/01/04 06:30:34;;;;;;;5.60;1.20;;;21.70;99.90;;;;;;5039240;28;20372;-61
2023/01/04 06:33:01;;;;;;;4.40;1.00;;;21.50;99.90;;;;;;5041868;28;20029;-61
2023/01/04 06:35:29;;;;;;;3.72;0.80;;;21.40;99.90;;;;;;5042307;28;20100;-61
2023/01/04 06:37:56;;;;;;;5.85;0.90;;;21.40;99.90;;;;;;5042714;28;20036;-62
2023/01/04 06:40:23;;;;;;;1.58;0.85;;;21.50;99.90;;;;;;5042383;28;20031;-63
2023/01/04 06:42:50;;;;;;;2.80;0.52;;;21.50;99.90;;;;;;5041052;28;20048;-62
2023/01/04 06:45:18;;;;;;;2.78;1.45;;;21.40;99.90;;;;;;5040612;28;20021;-61
2023/01/04 06:47:46;;;;;;;3.88;0.90;;;21.40;99.90;;;;;;5044357;28;20127;-61
2023/01/04 06:50:16;;;;;;;0.95;0.50;;;21.40;99.90;;;;;;5038737;28;20036;-61
2023/01/04 06:52:44;;;;;;;7.72;3.45;;;21.30;99.90;;;;;;5040876;28;20032;-61
2023/01/04 06:55:11;;;;;;;7.68;3.00;;;21.20;99.90;;;;;;5042023;28;20031;-62
2023/01/04 06:57:38;;;;;;;2.47;1.00;;;21.20;99.90;;;;;;5041841;28;20444;-61
2023/01/04 07:00:07;;;;;;;4.95;2.15;;;21.10;99.90;;;;;;5040877;28;20049;-61
2023/01/04 07:02:35;;;;;;;1.48;0.35;;;21.10;99.90;;;;;;5040272;28;20033;-65
2023/01/04 07:05:02;;;;;;;5.90;1.00;;;21.00;99.90;;;;;;5041918;28;20492;-61
2023/01/04 07:07:31;;;;;;;2.55;1.30;;;20.90;99.90;;;;;;5041104;28;20129;-62
2023/01/04 07:09:58;;;;;;;3.55;1.00;;;20.80;99.90;;;;;;5042633;28;20120;-61
2023/01/04 07:12:25;;;;;;;0.45;0.40;;;20.80;99.90;;;;;;5041031;28;20025;-60
2023/01/04 07:14:53;;;;;;;3.20;1.20;;;20.80;99.90;;;;;;5039859;28;20025;-61
2023/01/04 07:17:20;;;;;;;2.75;0.80;;;20.80;99.90;;;;;;5053145;28;20028;-63
2023/01/04 07:19:47;;;;;;;3.40;0.70;;;21.00;99.90;;;;;;5049735;28;20020;-62
2023/01/04 07:22:15;;;;;;;0.45;0.30;;;21.30;99.90;;;;;;5056260;28;20440;-62
2023/01/04 07:24:42;;;;;;;1.30;0.40;;;21.40;99.90;;;;;;5043758;28;20175;-60
2023/01/04 07:27:10;;;;;;;1.63;0.60;;;21.50;99.90;;;;;;5047700;28;20056;-62
2023/01/04 07:29:38;;;;;;;0.82;0.38;;;21.40;99.90;;;;;;5047696;28;20033;-62
2023/01/04 07:32:05;;;;;;;0.90;0.50;;;21.30;99.90;;;;;;5044956;28;20031;-61
2023/01/04 07:34:32;;;;;;;1.50;0.43;;;21.30;99.90;;;;;;5036414;28;20437;-61
2023/01/04 07:36:59;;;;;;;0.65;0.50;;;21.20;99.90;;;;;;5054401;28;20049;-61
2023/01/04 07:39:27;;;;;;;0.98;0.55;;;21.10;99.90;;;;;;5035928;28;20028;-61
2023/01/04 07:41:54;;;;;;;1.48;0.50;;;21.10;99.90;;;;;;5033942;28;20462;-61
2023/01/04 07:44:24;;;;;;;1.38;0.60;;;20.90;99.90;;;;;;5035144;28;20103;-61
2023/01/04 07:46:51;;;;;;;1.98;0.68;;;20.80;99.90;;;;;;5037798;28;20029;-60
2023/01/04 07:49:18;;;;;;;1.30;0.80;;;20.70;99.90;;;;;;5039039;28;20095;-61
2023/01/04 07:51:49;;;;;;;1.08;0.50;;;20.70;99.90;;;;;;5036691;28;20253;-61
2023/01/04 07:54:20;;;;;;;4.75;0.68;;;20.70;99.90;;;;;;5050697;28;20434;-61
2023/01/04 07:56:48;;;;;;;1.23;0.60;;;20.60;99.90;;;;;;5055881;28;20167;-61
2023/01/04 07:59:17;;;;;;;1.33;0.70;;;20.70;99.90;;;;;;5045903;28;20037;-62
2023/01/04 08:01:45;;;;;;;1.02;0.73;;;20.70;99.90;;;;;;5043154;28;20060;-61
2023/01/04 08:04:13;;;;;;;0.80;0.60;;;20.70;99.90;;;;;;5043380;28;20041;-62
2023/01/04 08:06:42;;;;;;;0.88;0.60;;;20.70;99.90;;;;;;5035272;28;20036;-61
2023/01/04 08:09:11;;;;;;;3.08;1.00;;;20.70;99.90;;;;;;5047392;28;20033;-61
2023/01/04 08:11:39;;;;;;;1.50;0.93;;;20.70;99.90;;;;;;5039832;28;20033;-61
2023/01/04 08:14:06;;;;;;;1.33;0.98;;;20.70;99.90;;;;;;5046015;28;20038;-60
2023/01/04 08:16:36;;;;;;;1.50;0.95;;;20.70;99.90;;;;;;5039954;28;20083;-60
2023/01/04 08:19:11;;;;;;;2.28;1.48;;;20.70;99.90;;;;;;5044046;28;20088;-61
2023/01/04 08:21:38;;;;;;;2.38;1.23;;;20.70;99.90;;;;;;5038248;28;20029;-61
2023/01/04 08:24:06;;;;;;;1.55;1.00;;;20.60;99.90;;;;;;5036704;28;20076;-60
2023/01/04 08:26:34;;;;;;;1.83;0.90;;;20.60;99.90;;;;;;5036852;28;20018;-61
2023/01/04 08:29:01;;;;;;;2.67;1.30;;;20.40;99.90;;;;;;5032169;28;20044;-61
2023/01/04 08:31:30;;;;;;;2.67;0.80;;;20.30;99.90;;;;;;5043627;28;20433;-60
2023/01/04 08:34:00;;;;;;;3.17;1.30;;;20.20;99.90;;;;;;5030841;28;20041;-60
2023/01/04 08:36:33;;;;;;;2.50;0.95;;;20.10;99.90;;;;;;5037932;28;20033;-61
2023/01/04 08:39:04;;;;;;;4.47;1.10;;;20.00;99.90;;;;;;5039834;28;20357;-62
2023/01/04 08:41:49;;;;;;;2.90;1.20;;;19.90;99.90;;;;;;5036751;28;20036;-63
2023/01/04 08:44:21;;;;;;;2.58;1.20;;;19.80;99.90;;;;;;5033091;28;20497;-61
2023/01/04 08:46:50;;;;;;;2.33;1.00;;;19.80;99.90;;;;;;5035946;28;20033;-61
2023/01/04 08:49:17;;;;;;;2.90;1.20;;;19.80;99.90;;;;;;5035055;28;20107;-61
2023/01/04 08:51:45;;;;;;;3.08;1.17;;;19.80;99.90;;;;;;5038420;28;20028;-61
2023/01/04 08:54:12;;;;;;;4.82;1.50;;;19.70;99.90;;;;;;5035872;28;20450;-62
2023/01/04 08:56:40;;;;;;;6.70;1.50;;;19.70;99.90;;;;;;5033537;28;20506;-62
2023/01/04 08:59:09;;;;;;;6.20;1.35;;;19.70;99.90;;;;;;5057656;28;20576;-62
2023/01/04 09:01:38;;;;;;;4.22;1.50;;;19.70;99.90;;;;;;5047430;28;20082;-60
2023/01/04 09:04:05;;;;;;;3.58;1.65;;;19.70;99.90;;;;;;5035875;28;20056;-62
2023/01/04 09:06:33;;;;;;;4.13;1.80;;;19.70;99.90;;;;;;5034597;28;20390;-61
2023/01/04 09:09:00;;;;;;;4.57;1.60;;;19.70;99.90;;;;;;5027543;28;20037;-62
2023/01/04 09:11:28;;;;;;;4.22;1.75;;;19.70;99.90;;;;;;5043499;28;20108;-62
2023/01/04 09:14:00;;;;;;;7.93;1.80;;;19.70;99.90;;;;;;5060108;28;20033;-63
2023/01/04 09:16:27;;;;;;;3.63;2.17;;;19.80;99.90;;;;;;5055231;28;20021;-61
2023/01/04 09:18:56;;;;;;;8.73;2.45;;;19.80;99.90;;;;;;5056800;28;20025;-61
2023/01/04 09:21:23;;;;;;;5.32;1.65;;;19.70;99.90;;;;;;5051737;28;20390;-62
2023/01/04 09:23:51;;;;;;;3.92;1.65;;;19.70;99.90;;;;;;5064246;28;20036;-62
2023/01/04 09:26:21;;;;;;;2.97;1.48;;;19.70;99.90;;;;;;5045522;28;20410;-62
2023/01/04 09:28:52;;;;;;;2.58;1.55;;;19.70;99.90;;;;;;5048103;28;20029;-62
2023/01/04 09:31:22;;;;;;;4.82;1.92;;;19.70;99.90;;;;;;5048292;28;20035;-62
2023/01/04 09:33:50;;;;;;;7.55;1.80;;;19.70;99.90;;;;;;5048013;28;20431;-62
2023/01/04 09:36:19;;;;;;;3.70;1.58;;;19.70;99.90;;;;;;5047792;28;20440;-62
2023/01/04 09:38:47;;;;;;;3.55;1.58;;;19.70;99.90;;;;;;5037147;28;20041;-62
2023/01/04 09:41:28;;;;;;;2.70;1.42;;;19.80;99.90;;;;;;5045696;28;20075;-63
2023/01/04 09:44:17;;;;;;;20.52;3.08;;;19.80;99.90;;;;;;5040891;28;20484;-67
2023/01/04 09:47:05;;;;;;;9.68;2.38;;;19.60;99.90;;;;;;5043433;28;20029;-67
2023/01/04 09:49:50;;;;;;;7.78;2.00;;;19.40;99.90;;;;;;5051952;28;20045;-68
2023/01/04 09:52:25;;;;;;;5.75;2.38;;;19.10;99.90;;;;;;5036787;28;20371;-66
2023/01/04 09:55:02;;;;;;;8.50;2.28;;;19.00;99.90;;;;;;5045736;28;20060;-68
2023/01/04 09:57:35;;;;;;;5.55;2.20;;;18.90;99.90;;;;;;5046614;28;20087;-65
2023/01/04 10:00:26;;;;;;;7.20;2.33;;;18.80;99.90;;;;;;5043993;28;20033;-65
2023/01/04 10:03:05;;;;;;;5.95;2.22;;;18.70;99.90;;;;;;5036258;28;20083;-65
2023/01/04 10:05:33;;;;;;;4.00;2.20;;;18.70;99.90;;;;;;5065093;28;20508;-65
2023/01/04 10:08:02;;;;;;;5.10;1.67;;;18.70;99.90;;;;;;5040104;28;20092;-66
2023/01/04 10:10:58;;;;;;;2.55;1.50;;;18.60;99.90;;;;;;5045012;28;20591;-66
2023/01/04 10:13:25;;;;;;;3.25;1.25;;;18.60;99.90;;;;;;5039493;28;20049;-66
2023/01/04 10:16:15;;;;;;;3.42;1.50;;;18.50;99.90;;;;;;5045293;28;20029;-65
2023/01/04 10:18:49;;;;;;;2.85;1.30;;;18.50;99.90;;;;;;5055128;28;20130;-65
2023/01/04 10:21:55;;;;;;;3.25;1.30;;;18.50;99.90;;;;;;5044618;28;20033;-66
2023/01/04 10:24:25;;;;;;;1.50;1.10;;;18.50;99.90;;;;;;5042824;28;20025;-66
2023/01/04 10:27:09;;;;;;;1.17;1.08;;;18.50;99.90;;;;;;5038762;28;20380;-65
2023/01/04 10:30:04;;;;;;;2.17;1.08;;;18.50;99.90;;;;;;5049965;28;20599;-66
2023/01/04 10:32:43;;;;;;;3.60;1.25;;;18.40;99.90;;;;;;5051135;28;20029;-66
2023/01/04 10:35:44;;;;;;;2.33;1.10;;;18.40;99.90;;;;;;5045333;28;20036;-65
2023/01/04 10:38:20;;;;;;;2.92;1.05;;;18.40;99.90;;;;;;5043939;28;20133;-65
2023/01/04 10:40:49;;;;;;;1.10;0.60;;;18.40;99.90;;;;;;5042555;28;20029;-66
2023/01/04 10:43:37;;;;;;;3.20;1.33;;;18.40;99.90;;;;;;5045255;28;20025;-65
2023/01/04 10:46:19;;;;;;;3.63;0.90;;;18.40;99.90;;;;;;5031295;28;20026;-65
2023/01/04 10:49:31;;;;;;;2.00;1.35;;;18.40;99.90;;;;;;5042903;28;20072;-65
2023/01/04 10:52:06;;;;;;;2.50;1.00;;;18.30;99.90;;;;;;5037059;28;20087;-64
2023/01/04 10:54:58;;;;;;;2.92;0.95;;;18.40;99.90;;;;;;5048329;28;20021;-65
2023/01/04 10:57:38;;;;;;;1.73;0.98;;;18.40;99.90;;;;;;5037820;28;20024;-65
2023/01/04 11:00:27;;;;;;;2.63;1.00;;;18.30;99.90;;;;;;5040866;28;20022;-64
2023/01/04 11:03:17;;;;;;;2.38;0.98;;;18.30;99.90;;;;;;5037443;28;20029;-69
2023/01/04 11:06:07;;;;;;;2.10;0.90;;;18.30;99.90;;;;;;5046661;28;20416;-65
2023/01/04 11:08:58;;;;;;;5.20;0.90;;;18.30;99.90;;;;;;5050497;28;20050;-65
2023/01/04 11:11:52;;;;;;;3.42;1.17;;;18.30;99.90;;;;;;5042059;28;20025;-65
2023/01/04 11:14:19;;;;;;;1.27;0.80;;;18.40;99.90;;;;;;5041611;28;20076;-64
2023/01/04 11:16:51;;;;;;;0.60;0.50;;;18.40;99.90;;;;;;5041282;28;20361;-65
2023/01/04 11:19:18;;;;;;;2.15;0.70;;;18.40;99.90;;;;;;5041754;28;20024;-65
2023/01/04 11:22:26;;;;;;;1.60;0.75;;;18.40;99.90;;;;;;5034451;28;20021;-65
2023/01/04 11:25:00;;;;;;;3.33;0.80;;;18.40;99.90;;;;;;5038319;28;20029;-64
2023/01/04 11:27:34;;;;;;;1.08;0.55;;;18.30;99.90;;;;;;5055840;28;20520;-64
2023/01/04 11:30:13;;;;;;;1.20;0.50;;;18.30;99.90;;;;;;5032370;28;20056;-64
2023/01/04 11:32:53;;;;;;;2.33;0.52;;;18.30;99.90;;;;;;5040788;28;20041;-64
2023/01/04 11:35:45;;;;;;;1.08;0.40;;;18.30;99.90;;;;;;5034472;28;20083;-65
2023/01/04 11:38:23;;;;;;;6.43;1.20;;;18.30;99.90;;;;;;5052107;28;20036;-64
2023/01/04 11:41:04;;;;;;;2.85;0.70;;;18.30;99.90;;;;;;5038306;28;20025;-65
2023/01/04 11:43:34;;;;;;;1.98;0.40;;;18.30;99.90;;;;;;5053435;28;20025;-65
2023/01/04 11:46:07;;;;;;;0.50;0.38;;;18.30;99.90;;;;;;5063713;28;20025;-66
2023/01/04 11:48:43;;;;;;;2.10;0.40;;;18.30;99.90;;;;;;5045467;28;20044;-66
2023/01/04 11:51:29;;;;;;;2.67;0.60;;;18.30;99.90;;;;;;5044295;28;20394;-65
2023/01/04 11:54:18;;;;;;;1.98;0.50;;;18.20;99.90;;;;;;5043391;28;20755;-65
2023/01/04 11:57:02;;;;;;;1.77;0.80;;;18.20;99.90;;;;;;5040026;28;20144;-66
2023/01/04 11:59:30;;;;;;;0.63;0.43;;;18.20;99.90;;;;;;5045695;28;20032;-65
2023/01/04 12:02:20;;;;;;;3.35;0.73;;;18.20;99.90;;;;;;5059292;28;20272;-65
2023/01/04 12:04:49;;;;;;;2.25;0.80;;;18.20;99.90;;;;;;5056316;28;20032;-65
2023/01/04 12:07:22;;;;;;;2.40;1.23;;;18.20;99.90;;;;;;5064756;28;20067;-65
2023/01/04 12:09:49;;;;;;;0.93;0.60;;;18.20;99.90;;;;;;5034482;28;20083;-65
2023/01/04 12:12:16;;;;;;;3.35;0.60;;;18.10;99.90;;;;;;5054570;28;20032;-66
2023/01/04 12:14:50;;;;;;;1.88;0.60;;;18.00;99.90;;;;;;5048565;28;20128;-67
2023/01/04 12:17:32;;;;;;;4.93;0.70;;;18.00;99.90;;;;;;5045235;28;20389;-67
2023/01/04 12:20:03;;;;;;;2.15;0.77;;;17.90;99.90;;;;;;5039696;28;20857;-65
2023/01/04 12:22:40;;;;;;;1.80;0.63;;;17.80;99.90;;;;;;5038823;28;20442;-69
2023/01/04 12:25:38;;;;;;;3.22;0.40;;;17.80;99.90;;;;;;5061089;28;20029;-69
2023/01/04 12:28:06;;;;;;;2.78;0.40;;;17.60;99.90;;;;;;5039678;28;20039;-68
2023/01/04 12:30:45;;;;;;;1.08;0.30;;;17.50;99.90;;;;;;5044470;28;20017;-68
2023/01/04 12:33:38;;;;;;;2.00;0.40;;;17.50;99.90;;;;;;5043607;28;20033;-67
2023/01/04 12:36:10;;;;;;;1.25;0.40;;;17.40;99.90;;;;;;5046775;28;20062;-68
2023/01/04 12:38:58;;;;;;;1.13;0.30;;;17.30;99.90;;;;;;5056632;28;20029;-68
2023/01/04 12:41:59;;;;;;;4.47;0.43;;;17.30;99.90;;;;;;5044968;28;20029;-68
2023/01/04 12:44:39;;;;;;;2.58;0.45;;;17.30;99.90;;;;;;5053022;28;20052;-66
2023/01/04 12:49:59;;;;;;;2.22;0.50;;;17.20;99.90;;;;;;5032055;28;20052;-70
2023/01/04 12:52:26;;;;;;;3.60;0.50;;;17.20;99.90;;;;;;5041273;28;20033;-68
2023/01/04 12:54:59;;;;;;;4.25;0.57;;;17.20;99.90;;;;;;5061693;28;20024;-70
2023/01/04 12:57:36;;;;;;;1.60;0.43;;;17.20;99.90;;;;;;5051561;28;20463;-69
2023/01/04 13:00:11;;;;;;;1.92;0.40;;;17.20;99.90;;;;;;5054023;28;20030;-69
2023/01/04 13:02:46;;;;;;;0.52;0.35;;;17.20;99.90;;;;;;5054542;28;20504;-69
2023/01/04 13:05:19;;;;;;;0.60;0.40;;;17.20;99.90;;;;;;5043196;28;20052;-69
2023/01/04 13:07:48;;;;;;;0.88;0.32;;;17.20;99.90;;;;;;5036511;28;20048;-66
2023/01/04 13:10:40;;;;;;;1.67;0.55;;;17.10;99.90;;;;;;5045484;28;20017;-67
2023/01/04 13:13:16;;;;;;;1.05;0.68;;;17.10;99.90;;;;;;5059130;28;20025;-67
2023/01/04 13:16:09;;;;;;;2.05;1.10;;;17.10;99.90;;;;;;5035045;28;20025;-68
2023/01/04 13:18:53;;;;;;;2.17;1.00;;;17.10;99.90;;;;;;5038240;28;20029;-68
2023/01/04 13:21:33;;;;;;;3.33;0.95;;;17.10;99.90;;;;;;5034356;28;20032;-68
2023/01/04 13:24:04;;;;;;;2.97;0.93;;;17.10;99.90;;;;;;5044740;28;20036;-67
2023/01/04 13:26:44;;;;;;;3.42;1.00;;;17.10;99.90;;;;;;5056669;28;20025;-67
2023/01/04 13:29:16;;;;;;;1.83;0.32;;;17.10;99.90;;;;;;5046816;28;20482;-67
2023/01/04 13:31:50;;;;;;;2.00;0.50;;;17.00;99.90;;;;;;5041575;28;20027;-66
2023/01/04 13:34:29;;;;;;;;;;;17.10;99.90;;;;;;5045179;28;20028;-66
2023/01/04 13:37:08;;;;;;;3.15;0.50;;;17.00;99.90;;;;;;5052510;28;20395;-66
2023/01/04 13:39:43;;;;;;;0.80;0.28;;;17.00;99.90;;;;;;5057053;28;20032;-66
2023/01/04 13:42:30;;;;;;;0.80;0.47;;;17.00;99.90;;;;;;5054061;28;20107;-65
2023/01/04 13:45:13;;;;;;;0.63;0.40;;;16.90;99.90;;;;;;5051995;28;20027;-65
2023/01/04 13:47:42;;;;;;;0.90;0.30;;;16.80;99.90;;;;;;5063264;28;20115;-66
2023/01/04 13:50:28;;;;;;;0.80;0.32;;;16.80;99.90;;;;;;5045157;28;20065;-66
2023/01/04 13:52:55;;;;;;;1.10;0.38;;;16.80;99.90;;;;;;5032751;28;20454;-63
2023/01/04 13:55:26;;;;;;;2.20;0.50;;;16.80;99.90;;;;;;5047024;28;20163;-66
2023/01/04 13:57:58;;;;;;;1.85;0.43;;;16.70;99.90;;;;;;5040129;28;20021;-65